Time;durP1;ratioP1;P1;durP2;ratioP2;P2;SDS_P1;SDS_P2;PMS_P1;PMS_P2;Temp;Humidity;BMP_temperature;BMP_pressure;BME280_temperature;BME280_humidity;BME280_pressure;Samples;Min_cycle;Max_cycle;Signal;HPM_P1;HPM_P2
2021/03/16 00:01:12;;;;;;;14.63;3.72;;;;;;;;;;5114133;28;20278;-68
2021/03/16 00:03:39;;;;;;;14.77;3.17;;;;;;;;;;5113657;28;20229;-68
2021/03/16 00:06:07;;;;;;;26.10;4.93;;;;;;;;;;5113588;28;20197;-68
2021/03/16 00:08:34;;;;;;;13.70;2.92;;;;;;;;;;5113728;28;20304;-68
2021/03/16 00:11:01;;;;;;;11.25;3.42;;;;;;;;;;5113612;28;20276;-68
2021/03/16 00:13:27;;;;;;;13.30;4.20;;;;;;;;;;5116695;28;20197;-68
2021/03/16 00:15:54;;;;;;;11.02;3.30;;;;;;;;;;5117571;28;20680;-67
2021/03/16 00:18:21;;;;;;;10.02;2.45;;;;;;;;;;5117984;28;20311;-68
2021/03/16 00:20:48;;;;;;;7.03;2.20;;;;;;;;;;5117244;28;20545;-69
2021/03/16 00:23:15;;;;;;;19.98;5.55;;;;;;;;;;5116940;28;20284;-68
2021/03/16 00:25:42;;;;;;;11.18;4.22;;;;;;;;;;5117586;28;20281;-68
2021/03/16 00:28:09;;;;;;;12.25;6.07;;;;;;;;;;5116873;28;20284;-68
2021/03/16 00:30:35;;;;;;;15.98;4.20;;;;;;;;;;5117410;28;20588;-68
2021/03/16 00:33:02;;;;;;;7.07;3.30;;;;;;;;;;5116765;28;20303;-68
2021/03/16 00:35:29;;;;;;;10.55;2.60;;;;;;;;;;5117364;28;20622;-68
2021/03/16 00:37:56;;;;;;;17.17;3.08;;;;;;;;;;5116580;28;20327;-68
2021/03/16 00:40:23;;;;;;;13.80;4.15;;;;;;;;;;5116610;28;20735;-69
2021/03/16 00:42:50;;;;;;;12.93;3.85;;;;;;;;;;5116921;28;20311;-68
2021/03/16 00:45:17;;;;;;;10.45;2.92;;;;;;;;;;5117101;28;20221;-68
2021/03/16 00:47:44;;;;;;;15.45;5.10;;;;;;;;;;5117216;28;20293;-68
2021/03/16 00:50:11;;;;;;;18.35;3.33;;;;;;;;;;5116749;28;20233;-68
2021/03/16 00:52:38;;;;;;;11.82;2.70;;;;;;;;;;5116716;28;20639;-69
2021/03/16 00:55:05;;;;;;;14.63;3.65;;;;;;;;;;5116593;28;20284;-68
2021/03/16 00:57:33;;;;;;;13.85;5.10;;;;;;;;;;5116202;28;20727;-68
2021/03/16 01:00:00;;;;;;;11.77;3.35;;;;;;;;;;5116577;28;20277;-68
2021/03/16 01:02:27;;;;;;;6.32;3.00;;;;;;;;;;5116430;28;20288;-67
2021/03/16 01:04:53;;;;;;;10.00;3.00;;;;;;;;;;5117073;28;20624;-68
2021/03/16 01:07:20;;;;;;;13.77;2.55;;;;;;;;;;5116378;28;20284;-67
2021/03/16 01:09:47;;;;;;;16.63;3.35;;;;;;;;;;5116394;28;20233;-67
2021/03/16 01:12:14;;;;;;;9.13;3.00;;;;;;;;;;5116352;28;20231;-68
2021/03/16 01:14:41;;;;;;;8.00;3.33;;;;;;;;;;5116265;28;20551;-68
2021/03/16 01:17:08;;;;;;;10.20;2.90;;;;;;;;;;5115975;28;20464;-69
2021/03/16 01:19:35;;;;;;;11.30;3.17;;;;;;;;;;5116741;28;20329;-69
2021/03/16 01:22:01;;;;;;;13.90;3.40;;;;;;;;;;5116144;28;20528;-68
2021/03/16 01:24:28;;;;;;;21.98;3.25;;;;;;;;;;5114782;28;20240;-67
2021/03/16 01:26:55;;;;;;;12.52;3.63;;;;;;;;;;5116500;28;20285;-67
2021/03/16 01:29:22;;;;;;;19.08;4.30;;;;;;;;;;5116447;28;20328;-68
2021/03/16 01:31:49;;;;;;;9.57;2.83;;;;;;;;;;5116453;28;20227;-68
2021/03/16 01:34:17;;;;;;;11.95;3.72;;;;;;;;;;5115532;28;20282;-68
2021/03/16 01:36:44;;;;;;;6.82;3.15;;;;;;;;;;5115798;28;20588;-67
2021/03/16 01:39:11;;;;;;;12.85;3.47;;;;;;;;;;5115400;28;20212;-67
2021/03/16 01:41:38;;;;;;;26.52;4.55;;;;;;;;;;5115780;28;20202;-67
2021/03/16 01:44:04;;;;;;;9.07;2.92;;;;;;;;;;5116055;28;20619;-68
2021/03/16 01:46:31;;;;;;;17.98;3.53;;;;;;;;;;5115287;28;20193;-67
2021/03/16 01:48:59;;;;;;;9.43;3.00;;;;;;;;;;5115774;28;20293;-67
2021/03/16 01:51:26;;;;;;;20.30;4.85;;;;;;;;;;5115654;28;20281;-67
2021/03/16 01:53:52;;;;;;;11.02;3.38;;;;;;;;;;5115865;28;20284;-67
2021/03/16 01:56:20;;;;;;;18.38;4.28;;;;;;;;;;5115203;28;20732;-67
2021/03/16 01:58:48;;;;;;;11.65;3.17;;;;;;;;;;5115175;28;20758;-68
2021/03/16 02:01:14;;;;;;;10.38;3.15;;;;;;;;;;5115377;28;20276;-67
2021/03/16 02:03:41;;;;;;;13.10;3.33;;;;;;;;;;5115337;28;20548;-67
2021/03/16 02:06:11;;;;;;;19.00;3.28;;;;;;;;;;5115000;28;20279;-67
2021/03/16 02:08:43;;;;;;;9.73;3.17;;;;;;;;;;5115444;28;20245;-67
2021/03/16 02:11:15;;;;;;;17.42;4.78;;;;;;;;;;5115301;28;20322;-67
2021/03/16 02:13:44;;;;;;;14.68;3.10;;;;;;;;;;5115727;28;20304;-67
2021/03/16 02:16:14;;;;;;;14.63;3.40;;;;;;;;;;5114684;28;20221;-67
2021/03/16 02:18:42;;;;;;;20.52;5.20;;;;;;;;;;5116210;28;20248;-67
2021/03/16 02:21:20;;;;;;;22.75;3.25;;;;;;;;;;5115340;28;20297;-68
2021/03/16 02:23:55;;;;;;;11.45;3.17;;;;;;;;;;5115241;28;20194;-68
2021/03/16 02:26:29;;;;;;;13.73;3.47;;;;;;;;;;5114983;28;20222;-68
2021/03/16 02:29:03;;;;;;;15.82;3.00;;;;;;;;;;5114536;28;20182;-68
2021/03/16 02:31:31;;;;;;;8.45;2.53;;;;;;;;;;5115319;28;20268;-67
2021/03/16 02:33:58;;;;;;;19.48;3.75;;;;;;;;;;5114724;28;20702;-68
2021/03/16 02:36:26;;;;;;;14.02;3.67;;;;;;;;;;5114566;28;20620;-68
2021/03/16 02:38:53;;;;;;;9.25;3.00;;;;;;;;;;5114491;28;20302;-68
2021/03/16 02:41:21;;;;;;;12.98;3.80;;;;;;;;;;5114797;28;20276;-68
2021/03/16 02:43:48;;;;;;;13.63;3.25;;;;;;;;;;5114504;28;20194;-68
2021/03/16 02:46:17;;;;;;;15.30;3.72;;;;;;;;;;5114650;28;20284;-68
2021/03/16 02:48:44;;;;;;;11.75;3.25;;;;;;;;;;5114731;28;20297;-68
2021/03/16 02:51:11;;;;;;;8.40;3.25;;;;;;;;;;5114129;28;20306;-67
2021/03/16 02:53:39;;;;;;;8.07;4.57;;;;;;;;;;5114422;28;20282;-67
2021/03/16 02:56:06;;;;;;;22.02;4.30;;;;;;;;;;5114403;28;20225;-68
2021/03/16 02:58:35;;;;;;;12.02;4.50;;;;;;;;;;5114783;28;20302;-67
2021/03/16 03:01:02;;;;;;;13.52;3.97;;;;;;;;;;5113917;28;20290;-67
2021/03/16 03:03:30;;;;;;;14.38;3.90;;;;;;;;;;5114144;28;20190;-68
2021/03/16 03:05:58;;;;;;;10.90;3.10;;;;;;;;;;5114233;28;20695;-69
2021/03/16 03:08:25;;;;;;;11.27;3.40;;;;;;;;;;5113905;28;20748;-68
2021/03/16 03:10:52;;;;;;;20.20;3.55;;;;;;;;;;5114174;28;20226;-69
2021/03/16 03:13:19;;;;;;;12.15;3.92;;;;;;;;;;5114049;28;20244;-69
2021/03/16 03:15:46;;;;;;;11.52;4.00;;;;;;;;;;5114110;28;20321;-68
2021/03/16 03:18:13;;;;;;;8.55;2.90;;;;;;;;;;5114346;28;20221;-67
2021/03/16 03:20:41;;;;;;;15.73;5.15;;;;;;;;;;5114047;28;20192;-67
2021/03/16 03:23:10;;;;;;;10.82;3.00;;;;;;;;;;5113666;28;20202;-67
2021/03/16 03:25:40;;;;;;;11.25;4.20;;;;;;;;;;5113628;28;20662;-67
2021/03/16 03:28:09;;;;;;;18.08;3.35;;;;;;;;;;5113959;28;20289;-67
2021/03/16 03:30:36;;;;;;;11.50;3.75;;;;;;;;;;5113711;28;20233;-67
2021/03/16 03:33:04;;;;;;;20.50;3.42;;;;;;;;;;5113788;28;20201;-67
2021/03/16 03:35:32;;;;;;;11.80;3.20;;;;;;;;;;5113955;28;20267;-68
2021/03/16 03:38:01;;;;;;;21.73;6.45;;;;;;;;;;5113752;28;20595;-68
2021/03/16 03:40:28;;;;;;;12.20;2.85;;;;;;;;;;5113513;28;20284;-68
2021/03/16 03:42:55;;;;;;;9.35;2.97;;;;;;;;;;5114276;28;20300;-68
2021/03/16 03:45:24;;;;;;;8.68;3.10;;;;;;;;;;5113962;28;20627;-68
2021/03/16 03:47:50;;;;;;;14.68;3.40;;;;;;;;;;5115782;28;20197;-68
2021/03/16 03:50:17;;;;;;;19.85;3.60;;;;;;;;;;5118113;28;20660;-69
2021/03/16 03:52:45;;;;;;;9.52;2.45;;;;;;;;;;5118101;28;20614;-68
2021/03/16 03:55:13;;;;;;;11.43;4.03;;;;;;;;;;5117667;28;20281;-68
2021/03/16 03:57:41;;;;;;;8.85;3.55;;;;;;;;;;5117775;28;20193;-68
2021/03/16 04:00:09;;;;;;;11.35;3.05;;;;;;;;;;5117472;28;20208;-67
2021/03/16 04:02:35;;;;;;;11.23;2.88;;;;;;;;;;5117686;28;20282;-68
2021/03/16 04:05:03;;;;;;;9.82;2.72;;;;;;;;;;5117648;28;20312;-67
2021/03/16 04:07:30;;;;;;;8.57;3.17;;;;;;;;;;5117322;28;20198;-68
2021/03/16 04:09:57;;;;;;;13.95;2.85;;;;;;;;;;5117477;28;20209;-67
2021/03/16 04:12:25;;;;;;;13.13;3.00;;;;;;;;;;5117167;28;20287;-66
2021/03/16 04:14:51;;;;;;;8.93;2.85;;;;;;;;;;5117493;28;20237;-67
2021/03/16 04:17:18;;;;;;;5.38;2.25;;;;;;;;;;5117246;28;20367;-69
2021/03/16 04:19:45;;;;;;;10.93;2.85;;;;;;;;;;5116991;28;20222;-68
2021/03/16 04:22:12;;;;;;;10.02;2.80;;;;;;;;;;5116968;28;20284;-67
2021/03/16 04:24:39;;;;;;;7.50;2.58;;;;;;;;;;5117279;28;20193;-68
2021/03/16 04:27:06;;;;;;;22.73;3.60;;;;;;;;;;5117221;28;20342;-68
2021/03/16 04:29:34;;;;;;;12.18;3.15;;;;;;;;;;5117112;28;20288;-68
2021/03/16 04:32:00;;;;;;;12.13;2.63;;;;;;;;;;5116781;28;20197;-68
2021/03/16 04:34:28;;;;;;;14.95;3.40;;;;;;;;;;5117096;28;20235;-70
2021/03/16 04:36:55;;;;;;;10.00;3.42;;;;;;;;;;5117729;28;20551;-69
2021/03/16 04:39:22;;;;;;;11.45;3.30;;;;;;;;;;5117773;28;20303;-69
2021/03/16 04:41:48;;;;;;;10.48;4.53;;;;;;;;;;5116639;28;20292;-69
2021/03/16 04:44:15;;;;;;;14.80;2.65;;;;;;;;;;5116890;28;20285;-67
2021/03/16 04:46:43;;;;;;;10.52;2.78;;;;;;;;;;5117610;28;20220;-68
2021/03/16 04:49:09;;;;;;;16.60;3.10;;;;;;;;;;5116833;28;20232;-67
2021/03/16 04:51:36;;;;;;;12.55;2.55;;;;;;;;;;5116461;28;20671;-70
2021/03/16 04:54:03;;;;;;;15.00;3.15;;;;;;;;;;5116847;28;20189;-68
2021/03/16 04:56:29;;;;;;;10.77;2.50;;;;;;;;;;5116410;28;20204;-69
2021/03/16 04:58:56;;;;;;;9.02;2.97;;;;;;;;;;5115200;28;20308;-69
2021/03/16 05:01:23;;;;;;;11.45;2.90;;;;;;;;;;5116277;28;20198;-69
2021/03/16 05:03:50;;;;;;;7.30;2.65;;;;;;;;;;5116702;28;20290;-70
2021/03/16 05:06:17;;;;;;;15.48;3.38;;;;;;;;;;5125059;27;20291;-70
2021/03/16 05:08:44;;;;;;;13.75;2.80;;;;;;;;;;5136968;27;20224;-69
2021/03/16 05:11:11;;;;;;;8.00;2.75;;;;;;;;;;5136923;27;20257;-70
2021/03/16 05:13:38;;;;;;;9.63;3.65;;;;;;;;;;5137127;27;20230;-69
2021/03/16 05:16:05;;;;;;;9.40;3.88;;;;;;;;;;5136324;27;20320;-68
2021/03/16 05:18:32;;;;;;;9.95;2.55;;;;;;;;;;5136306;27;20357;-68
2021/03/16 05:21:00;;;;;;;14.48;3.30;;;;;;;;;;5135587;27;20641;-68
2021/03/16 05:23:27;;;;;;;13.90;3.63;;;;;;;;;;5135761;27;20236;-67
2021/03/16 05:25:54;;;;;;;8.20;2.35;;;;;;;;;;5136170;27;20204;-67
2021/03/16 05:28:20;;;;;;;10.27;3.20;;;;;;;;;;5134853;27;20741;-68
2021/03/16 05:30:47;;;;;;;23.00;4.07;;;;;;;;;;5135373;27;20278;-68
2021/03/16 05:33:14;;;;;;;13.88;2.58;;;;;;;;;;5135978;27;20337;-68
2021/03/16 05:35:40;;;;;;;11.43;3.60;;;;;;;;;;5134038;27;20670;-68
2021/03/16 05:38:08;;;;;;;13.45;3.13;;;;;;;;;;5135685;27;20287;-68
2021/03/16 05:40:35;;;;;;;8.20;2.63;;;;;;;;;;5136529;27;20196;-66
2021/03/16 05:43:01;;;;;;;12.55;2.72;;;;;;;;;;5135945;27;20279;-70
2021/03/16 05:45:28;;;;;;;14.43;3.28;;;;;;;;;;5135674;27;20227;-70
2021/03/16 05:47:59;;;;;;;20.83;3.65;;;;;;;;;;5135796;27;20188;-68
2021/03/16 05:50:25;;;;;;;6.70;2.58;;;;;;;;;;5136363;27;20213;-70
2021/03/16 05:52:55;;;;;;;9.57;2.35;;;;;;;;;;5135778;27;20249;-70
2021/03/16 05:55:23;;;;;;;14.77;4.07;;;;;;;;;;5135963;27;20196;-69
2021/03/16 05:57:51;;;;;;;12.45;3.75;;;;;;;;;;5136389;27;20233;-70
2021/03/16 06:00:18;;;;;;;12.68;3.50;;;;;;;;;;5134583;27;20715;-67
2021/03/16 06:02:45;;;;;;;10.35;3.10;;;;;;;;;;5134456;27;20275;-68
2021/03/16 06:05:12;;;;;;;22.40;4.40;;;;;;;;;;5133935;27;20192;-68
2021/03/16 06:07:39;;;;;;;7.70;2.88;;;;;;;;;;5132944;27;20229;-69
2021/03/16 06:10:06;;;;;;;19.38;3.90;;;;;;;;;;5135215;27;20562;-69
2021/03/16 06:12:34;;;;;;;11.98;2.63;;;;;;;;;;5136144;27;20284;-68
2021/03/16 06:15:10;;;;;;;17.38;3.45;;;;;;;;;;5134440;27;20729;-67
2021/03/16 06:17:42;;;;;;;11.90;2.97;;;;;;;;;;5134652;27;20307;-68
2021/03/16 06:20:10;;;;;;;10.07;3.47;;;;;;;;;;5135774;27;20205;-69
2021/03/16 06:22:36;;;;;;;13.50;3.03;;;;;;;;;;5134815;27;20283;-68
2021/03/16 06:25:03;;;;;;;16.85;3.88;;;;;;;;;;5135448;27;20292;-69
2021/03/16 06:27:30;;;;;;;8.32;3.13;;;;;;;;;;5135278;27;20284;-68
2021/03/16 06:29:58;;;;;;;10.05;3.45;;;;;;;;;;5135048;27;20564;-68
2021/03/16 06:32:24;;;;;;;11.30;3.65;;;;;;;;;;5134836;27;20237;-66
2021/03/16 06:34:59;;;;;;;15.93;3.10;;;;;;;;;;5134770;27;20282;-68
2021/03/16 06:37:26;;;;;;;13.90;2.97;;;;;;;;;;5131807;27;20271;-69
2021/03/16 06:39:54;;;;;;;15.48;2.95;;;;;;;;;;5134471;27;20313;-69
2021/03/16 06:42:24;;;;;;;15.18;3.85;;;;;;;;;;5134796;27;20190;-69
2021/03/16 06:45:01;;;;;;;16.73;3.70;;;;;;;;;;5135021;27;20250;-68
2021/03/16 06:47:28;;;;;;;15.63;3.38;;;;;;;;;;5135302;27;20277;-69
2021/03/16 06:49:55;;;;;;;8.10;2.88;;;;;;;;;;5135074;27;20304;-69
2021/03/16 06:52:26;;;;;;;15.85;4.45;;;;;;;;;;5134588;27;20278;-69
2021/03/16 06:54:53;;;;;;;7.45;2.63;;;;;;;;;;5134853;27;20180;-68
2021/03/16 06:57:24;;;;;;;8.85;3.72;;;;;;;;;;5134498;27;20198;-69
2021/03/16 06:59:51;;;;;;;9.88;3.35;;;;;;;;;;5134405;27;20222;-69
2021/03/16 07:02:19;;;;;;;8.50;3.50;;;;;;;;;;5134828;27;20197;-68
2021/03/16 07:04:45;;;;;;;10.10;2.95;;;;;;;;;;5135360;27;20188;-68
2021/03/16 07:07:13;;;;;;;12.98;3.28;;;;;;;;;;5134706;27;20228;-69
2021/03/16 07:09:40;;;;;;;11.52;3.30;;;;;;;;;;5134996;27;20300;-69
2021/03/16 07:12:07;;;;;;;9.88;3.08;;;;;;;;;;5134613;27;20277;-69
2021/03/16 07:14:34;;;;;;;10.43;5.10;;;;;;;;;;5134401;27;20204;-68
2021/03/16 07:17:02;;;;;;;14.38;3.55;;;;;;;;;;5134529;27;20217;-68
2021/03/16 07:19:31;;;;;;;8.00;3.00;;;;;;;;;;5134460;27;20212;-68
2021/03/16 07:21:58;;;;;;;20.98;4.65;;;;;;;;;;5133743;27;20620;-68
2021/03/16 07:24:26;;;;;;;14.45;3.38;;;;;;;;;;5134861;27;20300;-69
2021/03/16 07:26:54;;;;;;;7.78;3.08;;;;;;;;;;5134515;27;20555;-70
2021/03/16 07:29:21;;;;;;;15.13;3.88;;;;;;;;;;5134128;28;20201;-68
2021/03/16 07:31:49;;;;;;;8.30;2.40;;;;;;;;;;5134499;28;20527;-68
2021/03/16 07:34:19;;;;;;;5.68;2.30;;;;;;;;;;5134091;28;20200;-70
2021/03/16 07:36:47;;;;;;;5.82;3.78;;;;;;;;;;5134321;28;20203;-69
2021/03/16 07:39:18;;;;;;;12.15;3.35;;;;;;;;;;5134642;28;20303;-68
2021/03/16 07:41:45;;;;;;;6.20;2.30;;;;;;;;;;5134613;28;20182;-67
2021/03/16 07:44:13;;;;;;;6.55;2.72;;;;;;;;;;5134901;28;20220;-68
2021/03/16 07:46:41;;;;;;;9.15;3.10;;;;;;;;;;5133884;28;20283;-68
2021/03/16 07:49:08;;;;;;;12.95;3.30;;;;;;;;;;5134275;28;20269;-69
2021/03/16 07:51:36;;;;;;;10.57;3.03;;;;;;;;;;5134227;28;20205;-68
2021/03/16 07:54:04;;;;;;;10.40;2.35;;;;;;;;;;5134313;28;20193;-69
2021/03/16 07:56:33;;;;;;;14.50;2.95;;;;;;;;;;5133914;28;20198;-68
2021/03/16 07:59:00;;;;;;;7.50;2.53;;;;;;;;;;5134820;28;20257;-68
2021/03/16 08:01:27;;;;;;;7.90;3.33;;;;;;;;;;5134147;28;20227;-68
2021/03/16 08:04:04;;;;;;;7.53;2.35;;;;;;;;;;5134124;28;20304;-70
2021/03/16 08:06:33;;;;;;;5.50;2.20;;;;;;;;;;5133873;28;20182;-68
2021/03/16 08:09:02;;;;;;;10.27;3.42;;;;;;;;;;5133774;28;20197;-68
2021/03/16 08:11:39;;;;;;;4.80;2.03;;;;;;;;;;5134056;28;20198;-68
2021/03/16 08:14:06;;;;;;;6.13;2.83;;;;;;;;;;5133682;28;20739;-68
2021/03/16 08:16:34;;;;;;;6.68;2.50;;;;;;;;;;5133762;28;20228;-67
2021/03/16 08:19:11;;;;;;;10.35;2.53;;;;;;;;;;5133847;28;20227;-69
2021/03/16 08:21:38;;;;;;;4.53;2.28;;;;;;;;;;5133648;28;20196;-68
2021/03/16 08:24:06;;;;;;;3.63;2.38;;;;;;;;;;5133633;28;20228;-69
2021/03/16 08:26:33;;;;;;;12.32;2.83;;;;;;;;;;5133921;28;20199;-69
2021/03/16 08:29:01;;;;;;;8.38;2.97;;;;;;;;;;5134378;28;20192;-69
2021/03/16 08:31:27;;;;;;;6.32;2.00;;;;;;;;;;5133896;28;20626;-69
2021/03/16 08:33:54;;;;;;;3.30;2.15;;;;;;;;;;5136062;27;20322;-69
2021/03/16 08:36:21;;;;;;;9.23;2.72;;;;;;;;;;5137272;27;20310;-68
2021/03/16 08:38:52;;;;;;;13.68;2.63;;;;;;;;;;5137155;27;20299;-68
2021/03/16 08:41:19;;;;;;;7.55;2.63;;;;;;;;;;5137910;27;20187;-68
2021/03/16 08:43:49;;;;;;;13.40;3.00;;;;;;;;;;5138220;27;20560;-69
2021/03/16 08:46:26;;;;;;;7.40;2.25;;;;;;;;;;5137428;27;20249;-68
2021/03/16 08:48:53;;;;;;;6.32;2.13;;;;;;;;;;5138025;27;20625;-69
2021/03/16 08:51:22;;;;;;;13.90;3.17;;;;;;;;;;5137554;27;20580;-68
2021/03/16 08:53:49;;;;;;;8.18;2.60;;;;;;;;;;5137350;27;20638;-71
2021/03/16 08:56:19;;;;;;;8.35;2.20;;;;;;;;;;5137326;27;20201;-72
2021/03/16 08:58:46;;;;;;;8.70;2.50;;;;;;;;;;5137391;27;20254;-72
2021/03/16 09:01:13;;;;;;;7.90;2.15;;;;;;;;;;5137366;27;20229;-71
2021/03/16 09:03:40;;;;;;;7.28;2.22;;;;;;;;;;5137274;27;20288;-69
2021/03/16 09:06:17;;;;;;;11.27;3.25;;;;;;;;;;5136570;27;20281;-69
2021/03/16 09:08:48;;;;;;;7.20;2.28;;;;;;;;;;5136619;27;20189;-69
2021/03/16 09:11:16;;;;;;;6.60;2.25;;;;;;;;;;5136948;27;20601;-69
2021/03/16 09:13:43;;;;;;;6.97;2.08;;;;;;;;;;5136637;27;20662;-69
2021/03/16 09:16:10;;;;;;;8.73;2.80;;;;;;;;;;5136812;27;20249;-69
2021/03/16 09:18:36;;;;;;;4.15;1.95;;;;;;;;;;5136763;27;20217;-72
2021/03/16 09:21:06;;;;;;;7.35;2.88;;;;;;;;;;5136556;27;20226;-70
2021/03/16 09:23:33;;;;;;;11.18;2.92;;;;;;;;;;5137156;27;20283;-70
2021/03/16 09:26:00;;;;;;;13.50;2.63;;;;;;;;;;5136601;27;20528;-70
2021/03/16 09:28:27;;;;;;;5.30;2.08;;;;;;;;;;5136503;27;20197;-69
2021/03/16 09:30:55;;;;;;;10.05;2.40;;;;;;;;;;5136378;27;20198;-69
2021/03/16 09:33:23;;;;;;;7.75;2.58;;;;;;;;;;5136150;27;20197;-69
2021/03/16 09:35:55;;;;;;;6.65;3.05;;;;;;;;;;5136342;27;20197;-69
2021/03/16 09:38:22;;;;;;;9.77;2.63;;;;;;;;;;5136458;27;20188;-69
2021/03/16 09:40:49;;;;;;;4.10;2.25;;;;;;;;;;5136301;27;20205;-68
2021/03/16 09:43:17;;;;;;;6.18;2.63;;;;;;;;;;5136261;27;20221;-68
2021/03/16 09:45:51;;;;;;;4.65;1.88;;;;;;;;;;5135746;27;20280;-69
2021/03/16 09:48:18;;;;;;;9.98;2.13;;;;;;;;;;5135891;27;20224;-69
2021/03/16 09:50:45;;;;;;;4.03;1.55;;;;;;;;;;5136190;27;20194;-68
2021/03/16 09:53:14;;;;;;;4.68;1.90;;;;;;;;;;5135734;27;20289;-68
2021/03/16 09:55:42;;;;;;;5.15;2.20;;;;;;;;;;5136228;27;20190;-68
2021/03/16 09:58:19;;;;;;;1.50;1.40;;;;;;;;;;5135901;27;20224;-69
2021/03/16 10:00:48;;;;;;;5.40;1.60;;;;;;;;;;5135661;27;20657;-70
2021/03/16 10:03:15;;;;;;;4.40;1.95;;;;;;;;;;5136277;27;20200;-69
2021/03/16 10:05:42;;;;;;;3.92;1.95;;;;;;;;;;5135468;27;20681;-68
2021/03/16 10:08:09;;;;;;;2.10;1.52;;;;;;;;;;5135768;27;20196;-70
2021/03/16 10:10:38;;;;;;;4.20;1.58;;;;;;;;;;5135666;27;20599;-68
2021/03/16 10:13:07;;;;;;;2.33;1.70;;;;;;;;;;5135623;27;20196;-68
2021/03/16 10:15:36;;;;;;;4.63;1.73;;;;;;;;;;5136178;27;20201;-69
2021/03/16 10:18:03;;;;;;;4.43;2.08;;;;;;;;;;5135909;27;20284;-68
2021/03/16 10:20:31;;;;;;;3.42;1.48;;;;;;;;;;5135615;27;20220;-69
2021/03/16 10:22:59;;;;;;;2.80;1.85;;;;;;;;;;5135144;27;20226;-68
2021/03/16 10:25:26;;;;;;;5.38;2.00;;;;;;;;;;5135653;27;20194;-69
2021/03/16 10:28:00;;;;;;;6.45;2.28;;;;;;;;;;5135348;27;20197;-69
2021/03/16 10:30:32;;;;;;;3.97;1.95;;;;;;;;;;5135372;27;20229;-71
2021/03/16 10:32:59;;;;;;;3.70;1.70;;;;;;;;;;5134936;27;20727;-69
2021/03/16 10:35:25;;;;;;;3.83;1.88;;;;;;;;;;5134861;27;20280;-70
2021/03/16 10:37:53;;;;;;;3.40;1.70;;;;;;;;;;5134925;27;20279;-69
2021/03/16 10:40:19;;;;;;;4.30;2.03;;;;;;;;;;5135018;27;20218;-69
2021/03/16 10:42:46;;;;;;;5.45;2.28;;;;;;;;;;5135115;27;20203;-68
2021/03/16 10:45:13;;;;;;;1.98;1.67;;;;;;;;;;5135085;27;20226;-69
2021/03/16 10:47:41;;;;;;;2.90;1.67;;;;;;;;;;5135218;27;20236;-68
2021/03/16 10:50:08;;;;;;;5.78;1.80;;;;;;;;;;5134718;27;20236;-68
2021/03/16 10:52:35;;;;;;;7.03;2.45;;;;;;;;;;5134960;27;20300;-69
2021/03/16 10:55:02;;;;;;;4.80;1.70;;;;;;;;;;5134717;27;20250;-68
2021/03/16 10:57:29;;;;;;;8.10;1.83;;;;;;;;;;5134701;27;20228;-69
2021/03/16 10:59:56;;;;;;;3.85;2.13;;;;;;;;;;5134720;27;20224;-68
2021/03/16 11:02:22;;;;;;;5.25;2.45;;;;;;;;;;5134949;27;20229;-69
2021/03/16 11:04:50;;;;;;;4.65;1.85;;;;;;;;;;5135154;27;20204;-69
2021/03/16 11:07:17;;;;;;;2.80;1.48;;;;;;;;;;5134708;27;20200;-68
2021/03/16 11:09:44;;;;;;;8.32;2.50;;;;;;;;;;5135079;27;20278;-68
2021/03/16 11:12:10;;;;;;;4.82;2.00;;;;;;;;;;5134838;27;20281;-69
2021/03/16 11:14:37;;;;;;;10.00;2.33;;;;;;;;;;5134142;27;20282;-69
2021/03/16 11:17:04;;;;;;;2.00;1.60;;;;;;;;;;5134481;27;20699;-66
2021/03/16 11:19:31;;;;;;;3.28;1.50;;;;;;;;;;5134088;27;20302;-69
2021/03/16 11:21:58;;;;;;;5.63;1.90;;;;;;;;;;5134149;27;20228;-69
2021/03/16 11:24:25;;;;;;;5.63;2.10;;;;;;;;;;5134495;27;20200;-70
2021/03/16 11:26:52;;;;;;;7.78;1.80;;;;;;;;;;5134633;27;20193;-69
2021/03/16 11:29:19;;;;;;;4.35;2.40;;;;;;;;;;5134667;28;20199;-69
2021/03/16 11:31:45;;;;;;;4.82;1.70;;;;;;;;;;5134458;28;20288;-68
2021/03/16 11:34:12;;;;;;;6.82;2.67;;;;;;;;;;5133937;28;20195;-69
2021/03/16 11:36:39;;;;;;;5.05;2.10;;;;;;;;;;5134238;28;20198;-71
2021/03/16 11:39:07;;;;;;;3.83;1.50;;;;;;;;;;5133891;28;20300;-69
2021/03/16 11:41:34;;;;;;;2.65;1.67;;;;;;;;;;5134431;28;20315;-69
2021/03/16 11:44:00;;;;;;;4.63;1.60;;;;;;;;;;5134208;28;20229;-69
2021/03/16 11:46:27;;;;;;;1.70;1.50;;;;;;;;;;5134133;28;20285;-69
2021/03/16 11:48:54;;;;;;;4.22;1.92;;;;;;;;;;5134100;28;20296;-70
2021/03/16 11:51:21;;;;;;;2.97;1.50;;;;;;;;;;5133699;28;20666;-69
2021/03/16 11:53:47;;;;;;;3.88;1.83;;;;;;;;;;5133962;28;20307;-68
2021/03/16 11:56:15;;;;;;;4.18;2.25;;;;;;;;;;5133978;28;20359;-68
2021/03/16 11:58:42;;;;;;;4.43;2.17;;;;;;;;;;5133794;28;20225;-69
2021/03/16 12:01:08;;;;;;;5.47;2.08;;;;;;;;;;5134184;28;20229;-69
2021/03/16 12:03:35;;;;;;;3.35;1.85;;;;;;;;;;5133907;28;20286;-72
2021/03/16 12:06:02;;;;;;;3.70;1.52;;;;;;;;;;5133615;28;20286;-69
2021/03/16 12:08:29;;;;;;;5.95;1.40;;;;;;;;;;5135219;27;20206;-69
2021/03/16 12:10:55;;;;;;;1.30;1.17;;;;;;;;;;5137911;27;20205;-69
2021/03/16 12:13:23;;;;;;;1.60;1.50;;;;;;;;;;5137509;27;20230;-69
2021/03/16 12:15:50;;;;;;;1.25;1.15;;;;;;;;;;5137754;27;20334;-69
2021/03/16 12:18:17;;;;;;;3.42;1.52;;;;;;;;;;5137525;27;20225;-69
2021/03/16 12:20:44;;;;;;;3.20;1.23;;;;;;;;;;5137600;27;20239;-70
2021/03/16 12:23:10;;;;;;;3.72;2.28;;;;;;;;;;5138234;27;20297;-69
2021/03/16 12:25:37;;;;;;;7.90;1.63;;;;;;;;;;5137792;27;20212;-70
2021/03/16 12:28:04;;;;;;;4.22;1.80;;;;;;;;;;5137252;27;20344;-69
2021/03/16 12:30:32;;;;;;;2.90;1.75;;;;;;;;;;5137413;27;20198;-70
2021/03/16 12:32:59;;;;;;;2.53;1.60;;;;;;;;;;5136992;27;20202;-70
2021/03/16 12:35:25;;;;;;;9.43;1.70;;;;;;;;;;5137022;27;20230;-71
2021/03/16 12:37:52;;;;;;;5.28;2.00;;;;;;;;;;5137236;27;20560;-71
2021/03/16 12:40:19;;;;;;;2.25;1.38;;;;;;;;;;5137219;27;20264;-70
2021/03/16 12:42:46;;;;;;;8.27;1.52;;;;;;;;;;5137342;27;20291;-70
2021/03/16 12:45:13;;;;;;;10.02;2.15;;;;;;;;;;5137483;27;20237;-69
2021/03/16 12:47:40;;;;;;;7.28;2.20;;;;;;;;;;5137513;27;20272;-69
2021/03/16 12:50:07;;;;;;;6.05;1.95;;;;;;;;;;5137198;27;20203;-68
2021/03/16 12:52:34;;;;;;;3.90;1.65;;;;;;;;;;5137251;27;20241;-69
2021/03/16 12:55:01;;;;;;;5.40;2.10;;;;;;;;;;5137740;27;20223;-70
2021/03/16 12:57:28;;;;;;;2.47;2.00;;;;;;;;;;5137421;27;20223;-68
2021/03/16 12:59:54;;;;;;;3.25;1.83;;;;;;;;;;5137278;27;20239;-69
2021/03/16 13:02:21;;;;;;;5.45;2.00;;;;;;;;;;5137014;27;20191;-69
2021/03/16 13:04:49;;;;;;;3.92;2.05;;;;;;;;;;5136491;27;20290;-69
2021/03/16 13:07:15;;;;;;;6.97;1.95;;;;;;;;;;5136862;27;20259;-69
2021/03/16 13:09:42;;;;;;;3.77;1.87;;;;;;;;;;5137903;27;20254;-70
2021/03/16 13:12:09;;;;;;;4.63;1.95;;;;;;;;;;5136903;27;20442;-70
2021/03/16 13:14:36;;;;;;;3.05;2.00;;;;;;;;;;5136368;27;20196;-70
2021/03/16 13:17:03;;;;;;;5.40;2.00;;;;;;;;;;5136525;27;20252;-69
2021/03/16 13:19:30;;;;;;;8.88;2.08;;;;;;;;;;5135144;27;20749;-69
2021/03/16 13:21:58;;;;;;;4.15;2.08;;;;;;;;;;5136756;27;20194;-69
2021/03/16 13:24:24;;;;;;;6.00;2.00;;;;;;;;;;5136254;27;20204;-68
2021/03/16 13:26:51;;;;;;;8.85;2.00;;;;;;;;;;5136770;27;20437;-69
2021/03/16 13:29:18;;;;;;;6.85;3.05;;;;;;;;;;5136510;27;20227;-68
2021/03/16 13:31:45;;;;;;;6.15;1.80;;;;;;;;;;5136151;27;20199;-69
2021/03/16 13:34:11;;;;;;;6.97;1.90;;;;;;;;;;5136049;27;20254;-70
2021/03/16 13:36:38;;;;;;;6.38;1.75;;;;;;;;;;5136224;27;20203;-69
2021/03/16 13:39:06;;;;;;;3.17;1.80;;;;;;;;;;5136860;27;20675;-68
2021/03/16 13:41:33;;;;;;;9.15;2.10;;;;;;;;;;5136647;27;20234;-69
2021/03/16 13:44:00;;;;;;;8.32;2.15;;;;;;;;;;5136242;27;20227;-69
2021/03/16 13:46:26;;;;;;;5.88;1.70;;;;;;;;;;5136231;27;20613;-73
2021/03/16 13:48:53;;;;;;;2.47;1.80;;;;;;;;;;5135674;27;20198;-72
2021/03/16 13:51:20;;;;;;;5.88;2.05;;;;;;;;;;5135669;27;20283;-72
2021/03/16 13:53:47;;;;;;;8.35;1.92;;;;;;;;;;5135785;27;20656;-70
2021/03/16 13:56:14;;;;;;;6.93;2.60;;;;;;;;;;5136006;27;20568;-69
2021/03/16 13:58:41;;;;;;;7.03;2.28;;;;;;;;;;5136435;27;20605;-69
2021/03/16 14:01:08;;;;;;;7.22;2.78;;;;;;;;;;5135711;27;20650;-69
2021/03/16 14:03:34;;;;;;;4.75;1.80;;;;;;;;;;5135104;27;20607;-68
2021/03/16 14:06:02;;;;;;;4.30;1.73;;;;;;;;;;5134248;27;20282;-68
2021/03/16 14:08:29;;;;;;;4.97;2.10;;;;;;;;;;5134588;27;20196;-68
2021/03/16 14:10:56;;;;;;;2.30;1.77;;;;;;;;;;5134743;27;20293;-70
2021/03/16 14:13:24;;;;;;;7.82;2.33;;;;;;;;;;5135605;27;20298;-70
2021/03/16 14:15:50;;;;;;;7.82;1.98;;;;;;;;;;5134969;27;20230;-68
2021/03/16 14:18:17;;;;;;;5.22;2.00;;;;;;;;;;5135680;27;20282;-70
2021/03/16 14:20:45;;;;;;;4.07;2.30;;;;;;;;;;5135277;27;20311;-69
2021/03/16 14:23:12;;;;;;;4.10;2.10;;;;;;;;;;5135055;27;20239;-70
2021/03/16 14:25:39;;;;;;;3.33;2.47;;;;;;;;;;5134398;27;20234;-70
2021/03/16 14:28:07;;;;;;;3.45;1.73;;;;;;;;;;5134628;27;20644;-70
2021/03/16 14:30:35;;;;;;;9.10;2.08;;;;;;;;;;5134807;27;20204;-70
2021/03/16 14:33:01;;;;;;;5.65;2.20;;;;;;;;;;5135380;27;20281;-70
2021/03/16 14:35:28;;;;;;;7.05;2.20;;;;;;;;;;5132623;27;20265;-70
2021/03/16 14:37:55;;;;;;;3.15;1.75;;;;;;;;;;5134551;27;20294;-69
2021/03/16 14:40:22;;;;;;;7.20;2.20;;;;;;;;;;5134374;27;20759;-70